Time;durP1;ratioP1;P1;durP2;ratioP2;P2;SDS_P1;SDS_P2;PMS_P1;PMS_P2;Temp;Humidity;BMP_temperature;BMP_pressure;BME280_temperature;BME280_humidity;BME280_pressure;Samples;Min_cycle;Max_cycle;Signal;HPM_P1;HPM_P2
2023/05/25 00:00:51;;;;;;;8.77;7.97;;;14.70;17.00;;;;;;5042504;28;20216;-46
2023/05/25 00:03:19;;;;;;;9.13;7.63;;;14.60;17.20;;;;;;5045833;28;20541;-50
2023/05/25 00:05:44;;;;;;;9.90;9.00;;;14.60;17.10;;;;;;5044362;28;20218;-49
2023/05/25 00:08:10;;;;;;;9.60;8.70;;;14.60;18.00;;;;;;5045581;28;20421;-49
2023/05/25 00:10:35;;;;;;;11.20;10.30;;;14.50;17.50;;;;;;5044564;28;20211;-48
2023/05/25 00:13:01;;;;;;;9.33;8.57;;;14.50;18.00;;;;;;5045810;28;20596;-46
2023/05/25 00:15:27;;;;;;;9.60;8.63;;;14.50;18.00;;;;;;5046104;28;20225;-47
2023/05/25 00:17:54;;;;;;;9.20;7.90;;;14.50;18.00;;;;;;5061706;28;20171;-50
2023/05/25 00:20:19;;;;;;;9.47;8.57;;;14.40;17.90;;;;;;5045514;28;20179;-45
2023/05/25 00:22:45;;;;;;;9.60;8.67;;;14.40;17.90;;;;;;5044479;28;20417;-52
2023/05/25 00:25:11;;;;;;;8.57;7.97;;;14.40;18.60;;;;;;5045048;28;20210;-49
2023/05/25 00:27:37;;;;;;;14.50;9.90;;;14.40;18.30;;;;;;5045391;28;20184;-47
2023/05/25 00:30:03;;;;;;;10.90;7.97;;;14.50;17.90;;;;;;5043514;28;20558;-49
2023/05/25 00:32:28;;;;;;;9.63;8.53;;;14.50;18.00;;;;;;5043043;28;20650;-51
2023/05/25 00:34:54;;;;;;;9.90;8.27;;;14.50;18.00;;;;;;5044188;28;20205;-53
2023/05/25 00:37:20;;;;;;;8.50;7.90;;;14.50;18.00;;;;;;5044777;28;20182;-47
2023/05/25 00:39:46;;;;;;;8.33;7.80;;;14.50;18.00;;;;;;5043294;28;20417;-48
2023/05/25 00:42:12;;;;;;;9.70;8.97;;;14.50;18.00;;;;;;5042140;28;20409;-52
2023/05/25 00:44:37;;;;;;;9.20;8.40;;;14.50;18.00;;;;;;5043070;28;20175;-50
2023/05/25 00:47:04;;;;;;;9.20;8.37;;;14.40;17.90;;;;;;5042328;28;20472;-49
2023/05/25 00:49:35;;;;;;;9.63;8.93;;;14.40;17.90;;;;;;5043785;28;20996;-46
2023/05/25 00:52:02;;;;;;;8.70;8.10;;;14.40;17.90;;;;;;5041672;28;20471;-48
2023/05/25 00:54:28;;;;;;;9.47;8.80;;;14.30;17.80;;;;;;5043951;28;20433;-45
2023/05/25 00:57:03;;;;;;;11.43;9.47;;;14.40;18.10;;;;;;5045681;28;20688;-50
2023/05/25 00:59:52;;;;;;;10.50;9.70;;;14.50;18.00;;;;;;5047606;28;20183;-46
2023/05/25 01:02:19;;;;;;;11.50;8.70;;;14.50;18.30;;;;;;5047286;28;20475;-47
2023/05/25 01:04:51;;;;;;;9.13;8.37;;;14.50;17.70;;;;;;5048200;28;20405;-47
2023/05/25 01:07:22;;;;;;;9.97;9.27;;;14.60;17.90;;;;;;5047607;28;20492;-46
2023/05/25 01:09:51;;;;;;;9.67;9.07;;;14.60;18.00;;;;;;5048351;28;20465;-50
2023/05/25 01:12:18;;;;;;;9.50;8.60;;;14.60;17.80;;;;;;5048736;28;20412;-50
2023/05/25 01:14:47;;;;;;;8.80;7.83;;;14.60;17.80;;;;;;5046300;28;20810;-47
2023/05/25 01:17:14;;;;;;;9.13;8.63;;;14.60;17.90;;;;;;5047923;28;20449;-47
2023/05/25 01:19:44;;;;;;;8.53;7.87;;;14.60;17.50;;;;;;5047027;28;20414;-46
2023/05/25 01:22:52;;;;;;;9.43;8.50;;;14.50;17.50;;;;;;5049096;28;20492;-47
2023/05/25 01:25:22;;;;;;;9.17;8.30;;;14.50;17.50;;;;;;5028384;28;20424;-51
2023/05/25 01:27:53;;;;;;;8.40;7.90;;;14.50;17.70;;;;;;5047563;28;20496;-47
2023/05/25 01:30:21;;;;;;;10.67;9.27;;;14.50;17.90;;;;;;5045335;28;20461;-48
2023/05/25 01:32:48;;;;;;;9.67;8.93;;;14.50;18.00;;;;;;5045575;28;20421;-47
2023/05/25 01:35:15;;;;;;;8.20;7.60;;;14.40;17.90;;;;;;5047687;28;20410;-46
2023/05/25 01:37:48;;;;;;;8.13;7.53;;;14.50;17.90;;;;;;5046504;28;20832;-49
2023/05/25 01:40:15;;;;;;;9.90;8.90;;;14.40;17.90;;;;;;5044764;28;20417;-50
2023/05/25 01:42:40;;;;;;;9.63;8.73;;;14.20;18.70;;;;;;5044304;28;20498;-48
2023/05/25 01:45:08;;;;;;;9.90;9.10;;;14.10;18.70;;;;;;5045328;28;20450;-47
2023/05/25 01:48:05;;;;;;;9.20;8.50;;;14.20;18.80;;;;;;5045830;28;20424;-50
2023/05/25 01:50:56;;;;;;;10.07;9.23;;;14.30;18.60;;;;;;5038705;28;20453;-51
2023/05/25 01:53:29;;;;;;;9.23;8.50;;;14.30;19.10;;;;;;4995004;28;20420;-47
2023/05/25 01:56:10;;;;;;;10.07;9.17;;;14.30;18.90;;;;;;5047474;28;20410;-47
2023/05/25 01:58:41;;;;;;;9.37;8.67;;;14.30;18.90;;;;;;5047343;28;20498;-46
2023/05/25 02:01:13;;;;;;;10.03;9.13;;;14.20;18.90;;;;;;5045279;28;20508;-47
2023/05/25 02:03:43;;;;;;;10.43;9.53;;;14.20;19.40;;;;;;5044479;28;20430;-49
2023/05/25 02:06:09;;;;;;;9.27;8.57;;;14.10;19.80;;;;;;5046756;28;20894;-48
2023/05/25 02:08:35;;;;;;;9.30;8.57;;;14.20;19.40;;;;;;5046894;28;20426;-52
2023/05/25 02:11:01;;;;;;;9.30;8.50;;;14.10;19.10;;;;;;5046912;28;20465;-50
2023/05/25 02:13:26;;;;;;;9.20;8.47;;;14.20;19.00;;;;;;5066075;28;20167;-50
2023/05/25 02:15:52;;;;;;;9.80;8.90;;;14.10;19.10;;;;;;5047575;28;20406;-51
2023/05/25 02:18:18;;;;;;;9.80;9.10;;;14.10;19.20;;;;;;5046497;28;20179;-49
2023/05/25 02:20:44;;;;;;;10.77;9.77;;;14.10;19.20;;;;;;5046232;28;20179;-51
2023/05/25 02:23:10;;;;;;;10.50;8.80;;;14.10;19.30;;;;;;5044866;28;20617;-50
2023/05/25 02:25:36;;;;;;;10.10;9.30;;;14.10;19.40;;;;;;5046324;28;20551;-51
2023/05/25 02:28:03;;;;;;;9.40;8.80;;;14.10;19.70;;;;;;5046390;28;20516;-48
2023/05/25 02:30:28;;;;;;;10.00;9.27;;;14.10;19.30;;;;;;5046899;28;20461;-48
2023/05/25 02:32:55;;;;;;;10.40;9.40;;;14.10;19.20;;;;;;5048941;28;20406;-51
2023/05/25 02:35:21;;;;;;;9.57;8.77;;;14.10;19.20;;;;;;5046837;28;20190;-46
2023/05/25 02:37:46;;;;;;;10.40;9.60;;;14.10;19.10;;;;;;5047313;28;20922;-48
2023/05/25 02:40:13;;;;;;;10.27;9.47;;;14.10;19.30;;;;;;5046158;28;20686;-51
2023/05/25 02:42:39;;;;;;;10.53;9.53;;;14.10;19.20;;;;;;5045382;28;20167;-45
2023/05/25 02:45:09;;;;;;;12.23;9.50;;;14.10;19.80;;;;;;5045827;28;20752;-46
2023/05/25 02:47:35;;;;;;;10.97;9.30;;;14.10;19.30;;;;;;5046513;28;20573;-49
2023/05/25 02:50:01;;;;;;;10.53;9.53;;;14.10;19.20;;;;;;5046764;28;20489;-48
2023/05/25 02:52:26;;;;;;;9.80;8.90;;;14.10;19.60;;;;;;5045967;28;20406;-50
2023/05/25 02:54:52;;;;;;;10.23;9.30;;;14.10;19.50;;;;;;5046349;28;20932;-47
2023/05/25 02:57:18;;;;;;;10.07;9.10;;;13.80;19.80;;;;;;5046310;28;20650;-47
2023/05/25 02:59:43;;;;;;;11.00;10.00;;;13.60;20.10;;;;;;5045953;28;20172;-48
2023/05/25 03:02:09;;;;;;;10.40;9.60;;;13.50;20.50;;;;;;5046231;28;20278;-47
2023/05/25 03:04:36;;;;;;;10.13;9.30;;;13.60;20.70;;;;;;5047302;28;20182;-45
2023/05/25 03:07:02;;;;;;;9.17;8.57;;;13.60;20.40;;;;;;5044454;28;20933;-45
2023/05/25 03:09:28;;;;;;;10.97;10.17;;;13.70;20.30;;;;;;5044607;28;20429;-48
2023/05/25 03:11:53;;;;;;;11.47;10.43;;;13.70;20.60;;;;;;5046617;28;20985;-46
2023/05/25 03:14:19;;;;;;;10.37;9.57;;;13.70;20.10;;;;;;5045741;28;20210;-46
2023/05/25 03:16:45;;;;;;;10.33;9.63;;;13.70;20.10;;;;;;5044662;28;20555;-48
2023/05/25 03:19:11;;;;;;;11.30;10.40;;;13.70;20.10;;;;;;5047020;28;20180;-47
2023/05/25 03:21:37;;;;;;;11.43;10.27;;;13.70;20.00;;;;;;5045568;28;20179;-45
2023/05/25 03:24:03;;;;;;;11.50;10.43;;;13.70;20.60;;;;;;5046138;28;20463;-48
2023/05/25 03:26:29;;;;;;;10.90;10.10;;;13.70;20.10;;;;;;5062472;28;20410;-49
2023/05/25 03:28:55;;;;;;;10.60;9.80;;;13.60;20.30;;;;;;5045666;28;20190;-50
2023/05/25 03:31:21;;;;;;;10.77;9.90;;;13.60;20.50;;;;;;5043405;28;20464;-49
2023/05/25 03:33:47;;;;;;;10.60;9.83;;;13.50;20.50;;;;;;5046664;28;20501;-46
2023/05/25 03:36:16;;;;;;;11.90;11.10;;;13.50;20.50;;;;;;5046148;28;20851;-45
2023/05/25 03:38:42;;;;;;;11.10;10.20;;;13.50;20.90;;;;;;5045376;28;20182;-48
2023/05/25 03:41:08;;;;;;;10.93;10.03;;;13.50;20.70;;;;;;5061020;28;20429;-49
2023/05/25 03:43:33;;;;;;;11.43;10.50;;;13.50;20.70;;;;;;5046330;28;20422;-47
2023/05/25 03:45:59;;;;;;;11.50;10.40;;;13.50;21.10;;;;;;5044878;28;20178;-46
2023/05/25 03:48:25;;;;;;;11.13;10.40;;;13.30;21.40;;;;;;5045956;28;20270;-45
2023/05/25 03:50:50;;;;;;;10.33;9.43;;;13.30;21.70;;;;;;5043933;28;20329;-45
2023/05/25 03:53:16;;;;;;;11.93;11.03;;;13.30;21.70;;;;;;5044139;28;21078;-48
2023/05/25 03:55:42;;;;;;;12.13;11.13;;;13.30;21.40;;;;;;5044312;28;20183;-45
2023/05/25 03:58:08;;;;;;;12.60;11.60;;;13.20;21.50;;;;;;5042584;28;20171;-44
2023/05/25 04:00:35;;;;;;;12.47;11.27;;;13.10;21.70;;;;;;5043628;28;20225;-45
2023/05/25 04:03:01;;;;;;;11.30;10.40;;;13.10;21.60;;;;;;5042027;28;20806;-49
2023/05/25 04:05:26;;;;;;;12.23;11.13;;;13.10;21.90;;;;;;5043960;28;20429;-47
2023/05/25 04:07:52;;;;;;;12.97;11.73;;;13.10;21.70;;;;;;5041933;28;20542;-48
2023/05/25 04:10:18;;;;;;;12.33;11.30;;;13.10;21.50;;;;;;5042649;28;20219;-44
2023/05/25 04:12:43;;;;;;;12.87;11.70;;;13.20;21.50;;;;;;5046195;28;20190;-47
2023/05/25 04:15:11;;;;;;;12.47;11.60;;;13.20;21.50;;;;;;5045866;28;20256;-43
2023/05/25 04:17:36;;;;;;;13.60;12.50;;;13.10;21.70;;;;;;5049129;28;20631;-47
2023/05/25 04:20:03;;;;;;;11.87;11.00;;;13.20;21.80;;;;;;5049807;28;20422;-44
2023/05/25 04:22:29;;;;;;;13.00;11.03;;;13.20;21.70;;;;;;5049384;28;20265;-46
2023/05/25 04:24:55;;;;;;;12.37;11.43;;;13.20;21.80;;;;;;5049234;28;20414;-43
2023/05/25 04:27:21;;;;;;;13.60;12.50;;;13.10;22.40;;;;;;5048677;28;20838;-47
2023/05/25 04:29:49;;;;;;;11.93;11.00;;;13.10;22.20;;;;;;5052161;28;20211;-44
2023/05/25 04:32:16;;;;;;;11.33;10.40;;;13.10;22.00;;;;;;5054544;28;20183;-44
2023/05/25 04:34:43;;;;;;;11.50;10.73;;;13.20;22.10;;;;;;5054853;28;20425;-44
2023/05/25 04:37:09;;;;;;;12.93;11.57;;;13.20;22.00;;;;;;5056964;28;20452;-43
2023/05/25 04:39:34;;;;;;;11.27;10.57;;;13.20;22.10;;;;;;5054179;28;20433;-45
2023/05/25 04:42:03;;;;;;;11.80;10.77;;;13.10;22.40;;;;;;5056470;28;20182;-47
2023/05/25 04:44:29;;;;;;;11.37;10.57;;;12.80;23.20;;;;;;5056891;28;20184;-45
2023/05/25 04:46:55;;;;;;;11.90;10.87;;;12.90;23.10;;;;;;5057931;28;20432;-49
2023/05/25 04:49:20;;;;;;;11.40;10.60;;;12.90;23.90;;;;;;5055664;28;20910;-52
2023/05/25 04:51:46;;;;;;;12.67;11.67;;;13.00;23.50;;;;;;5056134;28;20178;-49
2023/05/25 04:54:12;;;;;;;12.13;11.13;;;13.00;23.60;;;;;;5057464;28;20644;-51
2023/05/25 04:56:37;;;;;;;12.63;11.63;;;13.10;23.50;;;;;;5056610;28;20175;-52
2023/05/25 04:59:03;;;;;;;13.53;12.23;;;13.20;23.90;;;;;;5057431;28;20209;-48
2023/05/25 05:01:29;;;;;;;12.30;11.30;;;13.30;23.10;;;;;;5056684;28;20175;-52
2023/05/25 05:03:55;;;;;;;11.63;10.63;;;13.20;23.20;;;;;;5056570;28;20187;-49
2023/05/25 05:06:21;;;;;;;12.27;11.27;;;13.20;23.10;;;;;;5057162;28;20773;-52
2023/05/25 05:08:47;;;;;;;13.87;12.33;;;13.20;22.90;;;;;;5056328;28;20311;-48
2023/05/25 05:11:12;;;;;;;13.47;12.30;;;13.20;23.40;;;;;;5056358;28;20465;-50
2023/05/25 05:13:38;;;;;;;17.73;15.97;;;13.30;22.90;;;;;;5056420;28;20190;-51
2023/05/25 05:16:04;;;;;;;13.50;12.40;;;13.40;23.50;;;;;;5057169;28;20179;-48
2023/05/25 05:18:30;;;;;;;13.37;12.30;;;13.40;23.00;;;;;;5057011;28;20171;-48
2023/05/25 05:20:55;;;;;;;12.53;11.20;;;13.50;22.40;;;;;;5056957;28;20409;-50
2023/05/25 05:23:21;;;;;;;11.97;10.93;;;13.50;21.90;;;;;;5055617;28;20211;-49
2023/05/25 05:25:47;;;;;;;11.57;10.67;;;13.50;22.40;;;;;;5057215;28;20175;-51
2023/05/25 05:28:12;;;;;;;12.20;11.37;;;13.40;22.50;;;;;;5056280;28;20267;-49
2023/05/25 05:30:38;;;;;;;14.33;13.03;;;13.30;22.60;;;;;;5057134;28;20226;-52
2023/05/25 05:33:04;;;;;;;12.20;11.07;;;13.30;22.50;;;;;;5056461;28;20453;-46
2023/05/25 05:35:30;;;;;;;13.07;11.73;;;13.40;22.90;;;;;;5056956;28;20171;-48
2023/05/25 05:37:55;;;;;;;14.30;12.80;;;13.40;22.80;;;;;;5056271;28;20175;-49
2023/05/25 05:40:21;;;;;;;13.50;12.30;;;13.40;22.90;;;;;;5056068;28;20409;-51
2023/05/25 05:42:47;;;;;;;12.60;11.67;;;13.30;23.00;;;;;;5037707;28;20258;-50
2023/05/25 05:45:12;;;;;;;13.80;12.70;;;13.40;23.20;;;;;;5074959;28;20536;-47
2023/05/25 05:47:38;;;;;;;13.37;12.53;;;13.40;24.70;;;;;;5055795;28;20179;-50
2023/05/25 05:50:04;;;;;;;14.33;12.87;;;13.40;23.30;;;;;;5056757;28;20203;-53
2023/05/25 05:52:30;;;;;;;13.80;12.60;;;13.40;24.50;;;;;;5056085;28;20334;-49
2023/05/25 05:54:55;;;;;;;12.97;12.10;;;13.50;23.70;;;;;;5055780;28;20498;-60
2023/05/25 05:57:21;;;;;;;11.70;10.70;;;13.50;24.60;;;;;;5050673;28;20180;-50
2023/05/25 05:59:47;;;;;;;12.70;11.80;;;13.50;23.70;;;;;;5054657;28;20187;-49
2023/05/25 06:02:12;;;;;;;12.47;11.60;;;13.60;25.50;;;;;;5055360;28;20181;-51
2023/05/25 06:04:38;;;;;;;13.60;11.40;;;13.60;23.40;;;;;;5056485;28;20175;-54
2023/05/25 06:07:04;;;;;;;12.83;11.83;;;13.70;23.10;;;;;;5056439;28;20665;-48
2023/05/25 06:09:29;;;;;;;14.03;13.13;;;13.60;23.00;;;;;;5054510;28;20194;-48
2023/05/25 06:11:55;;;;;;;13.77;12.57;;;13.70;23.10;;;;;;5071979;28;20640;-48
2023/05/25 06:14:21;;;;;;;14.10;12.70;;;13.80;23.30;;;;;;5054994;28;20167;-50
2023/05/25 06:16:46;;;;;;;13.87;12.87;;;13.80;23.30;;;;;;5055913;28;20535;-46
2023/05/25 06:19:13;;;;;;;12.80;11.90;;;14.00;23.60;;;;;;5055819;28;20187;-51
2023/05/25 06:21:38;;;;;;;13.80;12.40;;;14.00;22.90;;;;;;5054438;28;20711;-51
2023/05/25 06:24:04;;;;;;;14.70;13.47;;;14.00;22.60;;;;;;5055809;28;20447;-49
2023/05/25 06:26:31;;;;;;;13.97;12.87;;;14.00;22.70;;;;;;5055726;28;20183;-52
2023/05/25 06:28:56;;;;;;;12.93;11.80;;;14.10;23.40;;;;;;5055027;28;20778;-49
2023/05/25 06:31:22;;;;;;;13.70;12.77;;;14.10;22.40;;;;;;5054156;28;20598;-45
2023/05/25 06:33:47;;;;;;;13.30;12.30;;;14.10;22.40;;;;;;5038347;28;20213;-46
2023/05/25 06:36:14;;;;;;;13.00;11.90;;;14.10;22.50;;;;;;5055464;28;20178;-47
2023/05/25 06:38:40;;;;;;;14.20;12.87;;;14.10;22.50;;;;;;5054572;28;20171;-48
2023/05/25 06:41:06;;;;;;;15.17;13.73;;;14.20;22.50;;;;;;5055093;28;20849;-49
2023/05/25 06:43:32;;;;;;;14.20;13.20;;;14.20;22.60;;;;;;5054257;28;20428;-49
2023/05/25 06:45:58;;;;;;;13.77;12.90;;;14.20;22.70;;;;;;5055207;28;20422;-47
2023/05/25 06:48:23;;;;;;;14.90;13.60;;;14.10;23.00;;;;;;5053661;28;20644;-47
2023/05/25 06:50:49;;;;;;;14.33;13.20;;;14.20;22.70;;;;;;5055136;28;20489;-46
2023/05/25 06:53:16;;;;;;;14.50;13.20;;;14.20;22.70;;;;;;5052092;28;20224;-50
2023/05/25 06:55:42;;;;;;;14.77;13.53;;;14.30;23.30;;;;;;5054363;28;20542;-49
2023/05/25 06:58:07;;;;;;;15.50;14.40;;;14.30;23.60;;;;;;5052775;28;20440;-50
2023/05/25 07:00:33;;;;;;;15.30;13.63;;;14.40;23.20;;;;;;5053658;28;20194;-47
2023/05/25 07:02:58;;;;;;;14.30;13.40;;;14.40;23.30;;;;;;5052619;28;20246;-48
2023/05/25 07:05:24;;;;;;;15.50;14.20;;;14.50;23.20;;;;;;5054950;28;20175;-48
2023/05/25 07:07:50;;;;;;;13.83;12.63;;;14.50;23.60;;;;;;5053509;28;20179;-50
2023/05/25 07:10:16;;;;;;;15.37;14.27;;;14.50;23.00;;;;;;5051573;28;20211;-53
2023/05/25 07:12:42;;;;;;;16.47;14.37;;;14.50;23.30;;;;;;5052267;28;20175;-49
2023/05/25 07:15:08;;;;;;;15.60;14.07;;;14.60;23.00;;;;;;5053807;28;20426;-47
2023/05/25 07:17:35;;;;;;;15.10;14.00;;;14.60;23.30;;;;;;5053107;28;20171;-52
2023/05/25 07:20:01;;;;;;;14.93;13.87;;;14.60;23.40;;;;;;5052869;28;20909;-54
2023/05/25 07:22:27;;;;;;;14.37;13.23;;;14.60;23.60;;;;;;5049007;28;20421;-47
2023/05/25 07:24:53;;;;;;;15.20;13.80;;;14.60;23.80;;;;;;5050518;28;20826;-50
2023/05/25 07:27:18;;;;;;;17.17;14.60;;;14.60;23.70;;;;;;5051840;28;20542;-52
2023/05/25 07:29:44;;;;;;;14.17;13.17;;;14.70;24.00;;;;;;5053856;28;20861;-48
2023/05/25 07:32:10;;;;;;;14.63;13.67;;;14.60;23.70;;;;;;5052963;28;20228;-46
2023/05/25 07:34:36;;;;;;;16.30;14.70;;;14.70;24.10;;;;;;5049705;28;20418;-49
2023/05/25 07:37:01;;;;;;;16.13;14.73;;;14.70;23.90;;;;;;5053258;28;20210;-48
2023/05/25 07:39:27;;;;;;;15.53;14.30;;;14.70;23.80;;;;;;5051744;28;20171;-52
2023/05/25 07:41:53;;;;;;;14.77;13.60;;;14.70;24.60;;;;;;5051435;28;20179;-46
2023/05/25 07:44:18;;;;;;;16.27;14.90;;;14.70;23.90;;;;;;5052997;28;20171;-47
2023/05/25 07:46:44;;;;;;;16.80;15.33;;;14.80;24.00;;;;;;5052266;28;20600;-47
2023/05/25 07:49:14;;;;;;;17.40;15.70;;;14.70;24.00;;;;;;5052865;28;20175;-47
2023/05/25 07:51:43;;;;;;;17.00;15.70;;;14.80;23.90;;;;;;5052206;28;20563;-50
2023/05/25 07:54:09;;;;;;;14.80;13.67;;;14.80;23.70;;;;;;5053809;28;20402;-46
2023/05/25 07:56:35;;;;;;;17.07;15.60;;;14.90;24.00;;;;;;5049223;28;20955;-49
2023/05/25 07:59:00;;;;;;;15.97;14.67;;;14.90;23.80;;;;;;5051080;28;20175;-50
2023/05/25 08:01:26;;;;;;;15.50;14.40;;;15.00;24.40;;;;;;5052761;28;20179;-49
2023/05/25 08:03:52;;;;;;;17.00;15.50;;;15.00;24.80;;;;;;5050710;28;20546;-48
2023/05/25 08:06:18;;;;;;;15.67;14.33;;;14.90;24.40;;;;;;5051112;28;20271;-50
2023/05/25 08:08:43;;;;;;;14.70;13.40;;;15.10;24.50;;;;;;5051768;28;20190;-47
2023/05/25 08:11:10;;;;;;;15.90;14.70;;;15.10;24.60;;;;;;5051476;28;20469;-47
2023/05/25 08:13:36;;;;;;;15.90;14.80;;;15.20;24.20;;;;;;5053664;28;20210;-48
2023/05/25 08:16:02;;;;;;;16.77;15.10;;;15.30;24.40;;;;;;5051977;28;20437;-48
2023/05/25 08:18:27;;;;;;;15.83;14.60;;;15.40;23.70;;;;;;5052561;28;20812;-49
2023/05/25 08:20:53;;;;;;;15.97;14.97;;;15.50;23.70;;;;;;5053315;28;20182;-46
2023/05/25 08:23:19;;;;;;;17.43;16.00;;;15.30;24.30;;;;;;5049997;28;20215;-46
2023/05/25 08:25:44;;;;;;;16.63;15.23;;;15.40;24.30;;;;;;5053349;28;20175;-49
2023/05/25 08:28:10;;;;;;;16.07;14.97;;;15.50;24.40;;;;;;5051816;28;20186;-50
2023/05/25 08:30:36;;;;;;;16.50;15.40;;;15.50;23.90;;;;;;5052113;28;20203;-45
2023/05/25 08:33:01;;;;;;;15.77;14.70;;;15.60;24.20;;;;;;5052219;28;20229;-48
2023/05/25 08:35:27;;;;;;;15.30;13.90;;;15.60;23.90;;;;;;5052298;28;20183;-48
2023/05/25 08:37:53;;;;;;;14.73;13.63;;;15.70;24.20;;;;;;5052542;28;20176;-47
2023/05/25 08:40:25;;;;;;;16.07;14.80;;;15.80;24.40;;;;;;5053368;28;20176;-49
2023/05/25 08:42:51;;;;;;;16.10;15.07;;;15.90;24.10;;;;;;5052095;28;20190;-50
2023/05/25 08:45:17;;;;;;;16.53;15.13;;;16.10;23.60;;;;;;5051848;28;20445;-45
2023/05/25 08:47:43;;;;;;;16.47;15.17;;;16.10;23.90;;;;;;5052741;28;20188;-47
2023/05/25 08:50:11;;;;;;;16.20;15.10;;;16.30;23.40;;;;;;5045637;28;20228;-52
2023/05/25 08:52:44;;;;;;;16.40;15.30;;;16.20;24.00;;;;;;5053085;28;21212;-50
2023/05/25 08:55:11;;;;;;;16.23;15.13;;;16.30;23.50;;;;;;5052248;28;20424;-50
2023/05/25 08:57:52;;;;;;;16.73;15.60;;;16.40;23.50;;;;;;5052883;28;20460;-48
2023/05/25 09:00:24;;;;;;;16.80;15.50;;;16.40;23.30;;;;;;5052875;28;20417;-46
2023/05/25 09:03:10;;;;;;;16.43;15.20;;;16.40;23.40;;;;;;5053078;28;20921;-48
2023/05/25 09:05:36;;;;;;;17.07;15.87;;;16.50;24.10;;;;;;5052837;28;20429;-49
2023/05/25 09:08:06;;;;;;;18.20;16.30;;;16.50;23.60;;;;;;5053716;28;20410;-48
2023/05/25 09:10:34;;;;;;;16.57;15.47;;;16.60;23.30;;;;;;5053486;28;20465;-47
2023/05/25 09:13:00;;;;;;;16.80;15.40;;;16.60;23.20;;;;;;5070523;28;20398;-50
2023/05/25 09:15:26;;;;;;;16.10;14.93;;;16.70;23.50;;;;;;5052255;28;20409;-49
2023/05/25 09:17:51;;;;;;;17.77;16.40;;;16.80;23.50;;;;;;5054965;28;20414;-45
2023/05/25 09:20:18;;;;;;;17.70;16.30;;;16.80;23.70;;;;;;5056592;28;20175;-43
2023/05/25 09:22:46;;;;;;;16.50;15.27;;;16.90;23.40;;;;;;5056014;28;20176;-48
2023/05/25 09:25:20;;;;;;;17.60;16.20;;;16.90;23.50;;;;;;5056594;28;20425;-45
2023/05/25 09:27:46;;;;;;;16.73;15.40;;;16.90;23.10;;;;;;5057149;28;20432;-49
2023/05/25 09:30:12;;;;;;;16.27;14.77;;;16.90;23.00;;;;;;5056149;28;20460;-47
2023/05/25 09:32:38;;;;;;;17.30;16.13;;;17.00;23.00;;;;;;5054821;28;20428;-50
2023/05/25 09:35:11;;;;;;;18.33;16.70;;;17.00;23.10;;;;;;5056416;28;20437;-50
2023/05/25 09:37:37;;;;;;;16.10;14.90;;;16.90;23.00;;;;;;5056335;28;20914;-50
2023/05/25 09:40:06;;;;;;;17.07;15.70;;;16.90;23.10;;;;;;5055641;28;20422;-50
2023/05/25 09:42:35;;;;;;;16.27;14.87;;;17.10;22.80;;;;;;5050284;28;20438;-51
2023/05/25 09:45:01;;;;;;;16.97;15.80;;;17.30;22.30;;;;;;5052601;28;20418;-48
2023/05/25 09:47:28;;;;;;;17.10;15.30;;;17.50;22.80;;;;;;5053446;28;20781;-47
2023/05/25 09:49:54;;;;;;;15.93;14.57;;;17.70;21.70;;;;;;5053416;28;20466;-46
2023/05/25 09:52:20;;;;;;;16.60;15.57;;;17.80;22.30;;;;;;5052568;28;20919;-45
2023/05/25 09:54:50;;;;;;;15.90;14.77;;;17.80;22.00;;;;;;5050198;28;20484;-48
2023/05/25 09:57:18;;;;;;;15.60;14.50;;;17.70;22.10;;;;;;5056008;28;21051;-44
2023/05/25 09:59:47;;;;;;;15.60;14.47;;;17.80;22.20;;;;;;5055620;28;20773;-49
2023/05/25 10:02:14;;;;;;;15.10;14.10;;;17.90;22.20;;;;;;5073980;28;20409;-47
2023/05/25 10:04:40;;;;;;;16.70;15.27;;;18.00;21.70;;;;;;5056191;28;20437;-46
2023/05/25 10:07:06;;;;;;;15.93;14.83;;;18.20;21.30;;;;;;5056538;28;20441;-49
2023/05/25 10:09:38;;;;;;;13.30;12.33;;;18.20;21.10;;;;;;5055644;28;20425;-46
2023/05/25 10:12:05;;;;;;;13.70;12.70;;;18.30;20.50;;;;;;5055997;28;20445;-49
2023/05/25 10:14:34;;;;;;;14.77;13.37;;;18.30;21.20;;;;;;5056164;28;20401;-48
2023/05/25 10:17:04;;;;;;;13.73;12.57;;;18.30;20.60;;;;;;5056222;28;20551;-49
2023/05/25 10:19:48;;;;;;;14.83;13.80;;;18.40;20.60;;;;;;5055236;28;20463;-45
2023/05/25 10:22:39;;;;;;;15.40;14.07;;;18.40;20.60;;;;;;5055663;28;20777;-50
2023/05/25 10:25:23;;;;;;;13.60;12.73;;;18.50;20.70;;;;;;5055784;28;20432;-47
2023/05/25 10:28:00;;;;;;;12.57;11.87;;;18.60;20.80;;;;;;5056109;28;20405;-50
2023/05/25 10:30:26;;;;;;;15.40;14.10;;;18.70;20.30;;;;;;5073809;28;20445;-51
2023/05/25 10:32:54;;;;;;;13.20;12.40;;;18.80;20.00;;;;;;5055356;28;20409;-51
2023/05/25 10:35:21;;;;;;;13.93;12.97;;;18.80;20.40;;;;;;5055812;28;20418;-49
2023/05/25 10:37:48;;;;;;;14.10;12.80;;;18.90;19.70;;;;;;5055610;28;20445;-48
2023/05/25 10:40:14;;;;;;;14.83;13.70;;;19.00;19.90;;;;;;5054779;28;20467;-50
2023/05/25 10:42:40;;;;;;;15.43;14.33;;;19.00;20.30;;;;;;5054878;28;20413;-44
2023/05/25 10:45:07;;;;;;;14.77;13.40;;;19.20;20.10;;;;;;5055135;28;20491;-43
2023/05/25 10:47:42;;;;;;;14.87;13.67;;;19.20;19.70;;;;;;5055182;28;20451;-49
2023/05/25 10:50:33;;;;;;;13.77;12.87;;;19.30;19.70;;;;;;5055141;28;20454;-46
2023/05/25 10:53:05;;;;;;;13.33;12.30;;;19.40;19.40;;;;;;5054390;28;20414;-51
2023/05/25 10:56:04;;;;;;;12.90;11.97;;;19.40;19.70;;;;;;5055064;28;20455;-49
2023/05/25 10:58:31;;;;;;;12.33;11.53;;;19.40;19.70;;;;;;4993481;28;20484;-47
2023/05/25 11:01:07;;;;;;;14.00;12.90;;;19.40;19.70;;;;;;5060330;28;20417;-48
2023/05/25 11:03:52;;;;;;;12.93;12.03;;;19.40;19.40;;;;;;5054856;28;20409;-52
2023/05/25 11:06:39;;;;;;;12.73;11.90;;;19.40;20.00;;;;;;5054869;28;20471;-49
2023/05/25 11:09:05;;;;;;;13.20;12.10;;;19.40;20.00;;;;;;5053005;28;20492;-50
2023/05/25 11:11:46;;;;;;;12.97;12.13;;;19.40;20.30;;;;;;5054158;28;20464;-48
2023/05/25 11:14:22;;;;;;;12.77;11.97;;;19.40;19.80;;;;;;5054774;28;20511;-49
2023/05/25 11:17:13;;;;;;;13.10;11.93;;;19.40;19.80;;;;;;5054639;28;20405;-49
2023/05/25 11:19:50;;;;;;;14.67;13.53;;;19.30;19.90;;;;;;5072599;28;20401;-45
2023/05/25 11:22:22;;;;;;;12.77;11.77;;;19.30;20.30;;;;;;5053955;28;20409;-46
2023/05/25 11:24:50;;;;;;;12.93;12.03;;;19.30;20.20;;;;;;5054250;28;20724;-48
2023/05/25 11:27:31;;;;;;;13.17;12.13;;;19.40;19.70;;;;;;5054503;28;20531;-49
2023/05/25 11:29:58;;;;;;;14.10;13.07;;;19.50;19.30;;;;;;5054608;28;20453;-50
2023/05/25 11:32:27;;;;;;;13.30;12.47;;;19.60;19.30;;;;;;5054195;28;20500;-48
2023/05/25 11:34:53;;;;;;;12.80;12.00;;;19.70;19.40;;;;;;5054774;28;20933;-47
2023/05/25 11:37:21;;;;;;;12.90;12.00;;;19.70;19.30;;;;;;5054632;28;20781;-49
2023/05/25 11:39:51;;;;;;;14.33;13.07;;;19.60;19.40;;;;;;5053889;28;20417;-50
2023/05/25 11:42:20;;;;;;;13.97;12.80;;;19.60;19.30;;;;;;5053756;28;20433;-53
2023/05/25 11:44:45;;;;;;;16.90;12.67;;;19.60;19.70;;;;;;5054416;28;20422;-49
2023/05/25 11:47:13;;;;;;;12.30;11.30;;;19.60;19.40;;;;;;5054241;28;20925;-48
2023/05/25 11:49:44;;;;;;;13.43;10.87;;;19.60;19.20;;;;;;5054131;28;20229;-47
2023/05/25 11:52:12;;;;;;;12.30;11.63;;;19.60;19.40;;;;;;5053035;28;20425;-48
2023/05/25 11:54:41;;;;;;;13.20;12.30;;;19.60;19.30;;;;;;5053246;28;20822;-49
2023/05/25 11:57:23;;;;;;;13.43;12.53;;;19.60;19.30;;;;;;5054047;28;20409;-48
2023/05/25 11:59:49;;;;;;;13.40;12.50;;;19.60;19.40;;;;;;5054199;28;20419;-47
2023/05/25 12:02:15;;;;;;;13.47;12.10;;;19.60;19.10;;;;;;5053530;28;20414;-45
2023/05/25 12:04:54;;;;;;;12.77;11.73;;;19.60;19.20;;;;;;5053879;28;20410;-48
2023/05/25 12:07:19;;;;;;;13.30;12.30;;;19.70;19.30;;;;;;5053436;28;20500;-49
2023/05/25 12:09:45;;;;;;;13.50;12.57;;;19.70;19.20;;;;;;5053850;28;20521;-48
2023/05/25 12:12:11;;;;;;;13.70;12.50;;;19.70;19.20;;;;;;5053503;28;20643;-51
2023/05/25 12:14:50;;;;;;;12.23;11.33;;;19.70;19.10;;;;;;5054011;28;20179;-50
2023/05/25 12:17:17;;;;;;;12.90;11.97;;;19.70;19.20;;;;;;5053855;28;20424;-49
2023/05/25 12:19:43;;;;;;;16.00;13.03;;;19.70;19.10;;;;;;5053868;28;20437;-51
2023/05/25 12:22:09;;;;;;;13.77;12.80;;;19.80;18.80;;;;;;5052652;28;20499;-46
2023/05/25 12:24:35;;;;;;;13.00;12.10;;;19.80;19.10;;;;;;5053773;28;20459;-51
2023/05/25 12:27:01;;;;;;;13.83;12.80;;;19.90;19.20;;;;;;5053009;28;20926;-49
2023/05/25 12:29:27;;;;;;;13.33;12.43;;;19.80;18.70;;;;;;5052942;28;20542;-48
2023/05/25 12:32:02;;;;;;;14.10;13.10;;;19.80;18.80;;;;;;5053065;28;20526;-47
2023/05/25 12:34:28;;;;;;;14.20;13.30;;;19.90;18.90;;;;;;5053296;28;20467;-46